Decoded Metar for KCGE (CAMBRIDGE-DORCH in MD, USA) (IATA:CGE) | Meteo·Mobile Aviation Weather
aviador You're here:

KCGE Decoded Metar

CAMBRIDGE-DORCH in MD, USA
Report Time2018-11-21 08:20:00
UTC Time2018-11-21 08:32:42
Flight Rules vfr VFR
Wind300° at 10 kt
W.Decomp.*RWY 34: 8.7 kt HW 5 kt LCW
W.Rank300° ranks 8
Current wind is above 300° avg. (8.3)
Visibility9999 m
Phenomena:N/A
Clouds:N/A
Expected CloudBase > 3,200 ft AGL from Temp-Dew spread
CeilingNone
Temp05°C (ISA -10)
Dew Point-3°C (57% RH)
AAT-1.0°C
QNH1021 hPa
Density Alt-1,388 ft
Elevation20 ft
Report Wrong Elevation
Raw Report
KCGE 210820Z AUTO 30010KT 270V330 10SM CLR 05/M03 A3015 RMK
A01=

Extra information for KCGE:More info

Metar Taf Metar & Taf Last 4 Metars F.Rules Stats Wind Profile Meteogram Temp Stats Airport Information Weather charts Add Link Nearby VenuesMetar ALERT Operation Metar Decoded Social comments

AIRNAV info for KCGE